createdAt,value
2017-06-14T00:01:16.559Z,10.00
2017-06-14T00:03:42.577Z,8.95
2017-06-14T00:06:08.605Z,9.65
2017-06-14T00:08:34.638Z,8.65
2017-06-14T00:11:01.413Z,8.90
2017-06-14T00:13:27.450Z,9.30
2017-06-14T00:15:54.497Z,8.93
2017-06-14T00:18:20.535Z,8.20
2017-06-14T00:20:46.570Z,8.57
2017-06-14T00:23:12.624Z,8.90
2017-06-14T00:25:39.401Z,9.27
2017-06-14T00:28:20.413Z,8.18
2017-06-14T00:30:46.445Z,9.65
2017-06-14T00:33:12.486Z,8.77
2017-06-14T00:35:38.528Z,9.02
2017-06-14T00:38:04.905Z,9.00
2017-06-14T00:40:30.949Z,8.82
2017-06-14T00:42:56.989Z,9.68
2017-06-14T00:45:23.029Z,9.80
2017-06-14T00:47:49.073Z,9.00
2017-06-14T00:50:15.887Z,9.95
2017-06-14T00:52:41.947Z,9.52
2017-06-14T00:55:08.001Z,9.77
2017-06-14T00:57:34.041Z,10.05
2017-06-14T01:00:01.083Z,9.43
2017-06-14T01:02:27.120Z,9.02
2017-06-14T01:04:53.130Z,8.70
2017-06-14T01:07:19.143Z,9.80
2017-06-14T01:09:45.169Z,9.85
2017-06-14T01:12:11.213Z,9.80
2017-06-14T01:14:37.227Z,9.52
2017-06-14T01:33:24.061Z,9.82
2017-06-14T01:35:50.067Z,10.05
2017-06-14T01:38:16.079Z,10.93
2017-06-14T01:40:57.259Z,9.80
2017-06-14T01:43:23.275Z,9.63
2017-06-14T01:45:49.295Z,9.95
2017-06-14T01:48:15.312Z,9.82
2017-06-14T01:50:42.092Z,10.82
2017-06-14T01:53:08.102Z,9.95
2017-06-14T01:55:34.126Z,10.15
2017-06-14T01:58:00.135Z,9.90
2017-06-14T02:00:26.152Z,9.68
2017-06-14T02:02:52.924Z,9.98
2017-06-14T02:05:18.943Z,11.20
2017-06-14T02:07:44.958Z,10.27
2017-06-14T02:10:10.980Z,9.55
2017-06-14T02:12:51.955Z,10.10
2017-06-14T02:15:17.983Z,9.70
2017-06-14T02:17:44.753Z,10.23
2017-06-14T02:20:10.759Z,9.90
2017-06-14T02:22:37.510Z,10.60
2017-06-14T02:25:04.360Z,11.12
2017-06-14T02:27:30.380Z,10.23
2017-06-14T02:29:56.391Z,10.55
2017-06-14T02:32:22.399Z,10.32
2017-06-14T02:34:48.410Z,10.65
2017-06-14T02:37:14.414Z,10.30
2017-06-14T02:39:40.422Z,11.10
2017-06-14T02:42:06.428Z,10.82
2017-06-14T02:44:32.444Z,11.02
2017-06-14T02:46:59.511Z,10.85
2017-06-14T02:49:25.527Z,11.05
2017-06-14T02:51:51.542Z,10.15
2017-06-14T02:54:17.590Z,10.30
2017-06-14T02:56:43.619Z,10.63
2017-06-14T02:59:09.629Z,10.02
2017-06-14T03:01:35.655Z,11.00
2017-06-14T03:04:01.682Z,10.93
2017-06-14T03:06:40.033Z,11.40
2017-06-14T03:09:06.209Z,12.35
2017-06-14T03:12:03.468Z,11.38
2017-06-14T03:14:44.478Z,10.55
2017-06-14T03:17:10.510Z,11.35
2017-06-14T03:19:36.542Z,11.35
2017-06-14T03:22:02.555Z,11.27
2017-06-14T03:24:28.575Z,10.70
2017-06-14T03:26:54.615Z,11.82
2017-06-14T03:29:20.639Z,11.77
2017-06-14T03:31:46.665Z,11.75
2017-06-14T03:34:12.688Z,11.38
2017-06-14T03:36:38.975Z,12.57
2017-06-14T03:39:04.996Z,12.68
2017-06-14T03:41:31.035Z,12.63
2017-06-14T03:44:12.018Z,11.80
2017-06-14T03:46:38.034Z,11.20
2017-06-14T03:49:04.050Z,11.65
2017-06-14T03:51:30.071Z,10.52
2017-06-14T03:53:56.835Z,11.23
2017-06-14T03:56:22.883Z,10.65
2017-06-14T03:58:49.179Z,12.25
2017-06-14T04:01:15.203Z,11.20
2017-06-14T04:03:41.222Z,10.57
2017-06-14T04:06:07.987Z,10.88
2017-06-14T04:08:34.023Z,9.95
2017-06-14T04:11:00.039Z,11.00
2017-06-14T04:13:26.063Z,10.80
2017-06-14T04:15:52.099Z,12.02
2017-06-14T04:18:18.748Z,11.65
2017-06-14T04:20:44.940Z,10.43
2017-06-14T04:23:10.959Z,11.85
2017-06-14T04:25:36.990Z,11.45
2017-06-14T04:28:03.755Z,11.93
2017-06-14T04:30:29.792Z,10.75
2017-06-14T04:32:55.835Z,12.70
2017-06-14T04:35:21.870Z,12.50
2017-06-14T04:37:47.895Z,13.65
2017-06-14T04:40:13.934Z,11.55
2017-06-14T04:42:40.087Z,13.55
2017-06-14T04:45:06.135Z,12.20
2017-06-14T04:47:32.181Z,13.52
2017-06-14T04:49:58.214Z,12.73
2017-06-14T04:52:24.249Z,11.52
2017-06-14T04:54:50.294Z,12.65
2017-06-14T04:57:16.319Z,13.48
2017-06-14T04:59:42.412Z,13.73
2017-06-14T05:02:11.221Z,14.05
2017-06-14T05:04:34.648Z,14.55
2017-06-14T05:07:00.682Z,14.63
2017-06-14T05:09:26.711Z,15.35
2017-06-14T05:11:52.732Z,14.30
2017-06-14T05:14:33.743Z,13.10
2017-06-14T05:16:59.773Z,11.55
2017-06-14T05:19:25.787Z,12.65
2017-06-14T05:21:51.803Z,12.60
2017-06-14T05:24:17.822Z,11.93
2017-06-14T05:26:43.860Z,12.13
2017-06-14T05:29:09.875Z,12.25
2017-06-14T05:31:35.898Z,11.48
2017-06-14T05:34:01.924Z,12.43
2017-06-14T05:36:28.211Z,13.43
2017-06-14T05:38:54.239Z,12.60
2017-06-14T05:41:20.259Z,13.52
2017-06-14T05:43:47.019Z,13.55
2017-06-14T05:46:13.063Z,13.10
2017-06-14T05:48:39.108Z,12.93
2017-06-14T05:51:05.123Z,13.07
2017-06-14T05:53:31.179Z,12.50
2017-06-14T05:55:57.198Z,14.65
2017-06-14T05:58:24.425Z,13.75
2017-06-14T06:00:50.498Z,13.23
2017-06-14T06:03:16.554Z,12.90
2017-06-14T06:05:42.590Z,13.05
2017-06-14T06:08:08.622Z,11.30
2017-06-14T06:10:34.663Z,13.50
2017-06-14T06:13:00.701Z,10.55
2017-06-14T06:15:26.776Z,14.43
2017-06-14T06:17:52.818Z,13.88
2017-06-14T06:20:19.886Z,13.18
2017-06-14T06:22:45.942Z,13.57
2017-06-14T06:25:11.969Z,12.68
2017-06-14T06:27:38.015Z,12.15
2017-06-14T06:30:04.815Z,12.02
2017-06-14T06:32:30.855Z,12.45
2017-06-14T06:34:56.902Z,12.00
2017-06-14T06:37:22.942Z,11.77
2017-06-14T06:39:49.735Z,11.20
2017-06-14T06:42:16.571Z,10.73
2017-06-14T06:44:42.629Z,11.65
2017-06-14T06:47:08.702Z,10.20
2017-06-14T06:49:49.739Z,10.95
2017-06-14T06:52:16.526Z,10.68
2017-06-14T06:54:42.565Z,5.80
2017-06-14T06:57:08.606Z,8.55
2017-06-14T06:59:34.641Z,7.80
2017-06-14T07:02:00.681Z,8.55
2017-06-14T07:04:27.702Z,7.78
2017-06-14T07:06:53.735Z,7.15
2017-06-14T07:09:19.782Z,8.27
2017-06-14T07:11:45.850Z,6.65
2017-06-14T07:14:11.913Z,8.93
2017-06-14T07:16:38.017Z,8.82
2017-06-14T07:19:04.054Z,9.25
2017-06-14T07:21:30.094Z,8.38
2017-06-14T07:23:57.276Z,7.70
2017-06-14T07:26:23.722Z,8.52
2017-06-14T07:28:49.768Z,8.48
2017-06-14T07:31:15.943Z,8.30
2017-06-14T07:33:42.009Z,8.50
2017-06-14T07:36:08.131Z,8.98
2017-06-14T07:38:34.916Z,8.02
2017-06-14T07:41:00.977Z,7.55
2017-06-14T07:43:27.026Z,7.50
2017-06-14T07:45:53.167Z,8.15
2017-06-14T07:48:19.405Z,7.80
2017-06-14T07:50:45.485Z,6.53
2017-06-14T07:53:12.272Z,6.80
2017-06-14T07:55:38.323Z,7.50
2017-06-14T07:58:04.366Z,7.05
2017-06-14T08:00:30.410Z,8.07
2017-06-14T08:02:56.458Z,8.38
2017-06-14T08:05:22.585Z,7.43
2017-06-14T08:07:49.364Z,7.68
2017-06-14T08:10:18.058Z,8.95
2017-06-14T08:12:44.110Z,5.55
2017-06-14T08:15:10.166Z,6.60
2017-06-14T08:17:36.239Z,6.68
2017-06-14T08:20:02.329Z,5.80
2017-06-14T08:22:28.426Z,7.20
2017-06-14T08:24:54.549Z,7.00
2017-06-14T08:27:35.573Z,6.82
2017-06-14T08:30:01.605Z,6.03
2017-06-14T08:32:28.594Z,6.90
2017-06-14T08:34:54.734Z,6.97
2017-06-14T08:37:20.782Z,6.47
2017-06-14T08:39:46.870Z,6.28
2017-06-14T08:42:12.913Z,6.50
2017-06-14T08:44:38.957Z,5.72
2017-06-14T08:47:04.997Z,5.75
2017-06-14T08:49:31.049Z,5.85
2017-06-14T08:51:57.083Z,6.00
2017-06-14T08:54:24.009Z,5.65
2017-06-14T08:56:50.050Z,6.05
2017-06-14T08:59:16.121Z,6.15
2017-06-14T09:01:42.164Z,5.78
2017-06-14T09:04:08.206Z,5.20
2017-06-14T09:06:34.263Z,5.85
2017-06-14T09:09:31.297Z,4.35
2017-06-14T09:11:57.541Z,4.90
2017-06-14T09:14:23.843Z,5.32
2017-06-14T09:16:49.932Z,4.93
2017-06-14T09:19:16.714Z,4.78
2017-06-14T09:21:42.780Z,4.80
2017-06-14T09:24:08.826Z,4.82
2017-06-14T09:26:34.886Z,6.30
2017-06-14T09:29:00.987Z,4.90
2017-06-14T09:31:27.034Z,5.32
2017-06-14T09:33:53.082Z,6.15
2017-06-14T09:36:19.298Z,4.57
2017-06-14T09:38:45.449Z,5.12
2017-06-14T09:41:11.502Z,4.97
2017-06-14T09:43:37.554Z,4.70
2017-06-14T09:46:04.349Z,4.82
2017-06-14T09:48:30.394Z,4.57
2017-06-14T09:50:56.454Z,4.60
2017-06-14T09:53:22.570Z,4.62
2017-06-14T09:55:48.649Z,4.87
2017-06-14T09:58:14.858Z,3.87
2017-06-14T10:00:40.909Z,4.37
2017-06-14T10:03:06.970Z,4.30
2017-06-14T10:05:33.013Z,4.18
2017-06-14T10:07:59.093Z,3.95
2017-06-14T10:10:25.144Z,4.32
2017-06-14T10:13:07.037Z,3.50
2017-06-14T10:15:33.155Z,3.65
2017-06-14T10:17:59.199Z,5.05
2017-06-14T10:20:25.504Z,5.28
2017-06-14T10:22:51.557Z,5.00
2017-06-14T10:25:17.606Z,3.25
2017-06-14T10:27:43.646Z,3.47
2017-06-14T10:30:09.699Z,3.50
2017-06-14T10:32:35.746Z,3.90
2017-06-14T10:35:01.800Z,4.78
2017-06-14T10:37:27.919Z,2.87
2017-06-14T10:39:54.039Z,3.30
2017-06-14T10:42:20.117Z,3.40
2017-06-14T10:45:01.177Z,3.92
2017-06-14T10:47:27.229Z,3.60
2017-06-14T10:49:53.275Z,4.20
2017-06-14T10:52:19.390Z,4.55
2017-06-14T10:54:46.178Z,3.17
2017-06-14T10:57:12.315Z,3.33
2017-06-14T10:59:38.375Z,2.80
2017-06-14T11:02:04.426Z,3.20
2017-06-14T11:04:30.462Z,3.87
2017-06-14T11:06:56.706Z,5.07
2017-06-14T11:09:22.882Z,4.15
2017-06-14T11:11:48.999Z,4.20
2017-06-14T11:14:15.262Z,3.35
2017-06-14T11:16:41.308Z,2.92
2017-06-14T11:19:07.450Z,3.42
2017-06-14T11:21:33.538Z,3.10
2017-06-14T11:23:59.726Z,2.90
2017-06-14T11:26:25.946Z,3.33
2017-06-14T11:28:52.394Z,3.60
2017-06-14T11:31:18.534Z,3.33
2017-06-14T11:33:44.681Z,4.35
2017-06-14T11:36:10.815Z,3.20
2017-06-14T11:38:36.875Z,3.80
2017-06-14T11:41:02.927Z,3.72
2017-06-14T11:43:28.990Z,3.30
2017-06-14T11:46:10.001Z,3.37
2017-06-14T11:48:36.696Z,3.60
2017-06-14T11:51:02.762Z,3.05
2017-06-14T11:53:28.824Z,3.55
2017-06-14T11:55:54.898Z,3.97
2017-06-14T11:58:20.958Z,3.30
2017-06-14T12:00:47.021Z,3.78
2017-06-14T12:03:13.253Z,3.30
2017-06-14T12:05:39.331Z,3.00
2017-06-14T12:08:05.381Z,4.13
2017-06-14T12:10:31.429Z,3.50
2017-06-14T12:12:57.658Z,2.63
2017-06-14T12:15:23.714Z,3.30
2017-06-14T12:17:49.790Z,3.00
2017-06-14T12:20:15.834Z,2.90
2017-06-14T12:22:41.879Z,2.73
2017-06-14T12:25:07.933Z,3.90
2017-06-14T12:27:33.976Z,3.60
2017-06-14T12:30:00.811Z,3.47
2017-06-14T12:32:26.987Z,2.60
2017-06-14T12:34:53.101Z,3.13
2017-06-14T12:37:19.146Z,3.10
2017-06-14T12:39:45.196Z,3.23
2017-06-14T12:42:11.235Z,3.40
2017-06-14T12:44:37.286Z,3.00
2017-06-14T12:47:04.061Z,2.87
2017-06-14T12:49:30.101Z,3.07
2017-06-14T12:51:56.138Z,2.90
2017-06-14T12:54:22.177Z,3.03
2017-06-14T12:56:48.250Z,3.60
2017-06-14T12:59:14.378Z,2.87
2017-06-14T13:01:40.441Z,4.23
2017-06-14T13:04:06.602Z,3.03
2017-06-14T13:06:32.648Z,4.57
2017-06-14T13:08:58.707Z,3.30
2017-06-14T13:11:24.743Z,2.63
2017-06-14T13:13:50.789Z,3.50
2017-06-14T13:16:16.826Z,3.30
2017-06-14T13:18:43.128Z,2.60
2017-06-14T13:21:09.178Z,3.40
2017-06-14T13:23:36.275Z,3.50
2017-06-14T13:26:02.326Z,3.50
2017-06-14T13:28:28.361Z,2.90
2017-06-14T13:31:09.380Z,3.30
2017-06-14T13:33:35.457Z,3.33
2017-06-14T13:36:01.581Z,3.40
2017-06-14T13:38:27.670Z,3.00
2017-06-14T13:40:53.949Z,3.13
2017-06-14T13:43:20.110Z,3.03
2017-06-14T13:45:46.182Z,3.20
2017-06-14T13:48:12.301Z,2.28
2017-06-14T13:50:38.346Z,2.87
2017-06-14T13:53:04.430Z,3.37
2017-06-14T13:55:30.474Z,3.30
2017-06-14T13:57:56.515Z,3.80
2017-06-14T14:00:22.574Z,2.97
2017-06-14T14:02:48.757Z,2.87
2017-06-14T14:05:14.790Z,3.40
2017-06-14T14:07:40.834Z,2.62
2017-06-14T14:10:06.903Z,2.83
2017-06-14T14:12:32.937Z,2.70
2017-06-14T14:14:58.985Z,2.50
2017-06-14T14:17:25.047Z,2.63
2017-06-14T14:19:51.085Z,2.67
2017-06-14T14:22:17.145Z,2.93
2017-06-14T14:24:43.298Z,3.03
2017-06-14T14:27:09.335Z,3.53
2017-06-14T14:29:35.389Z,3.23
2017-06-14T14:32:01.422Z,3.40
2017-06-14T14:34:27.466Z,3.13
2017-06-14T14:36:54.257Z,3.00
2017-06-14T14:39:20.295Z,3.00
2017-06-14T14:41:46.326Z,2.50
2017-06-14T14:44:12.382Z,2.97
2017-06-14T14:46:38.768Z,3.20
2017-06-14T14:49:04.807Z,2.90
2017-06-14T14:51:30.842Z,3.00
2017-06-14T14:53:56.885Z,2.80
2017-06-14T14:56:22.945Z,3.00
2017-06-14T14:58:48.993Z,3.20
2017-06-14T15:01:15.058Z,2.97
2017-06-14T15:03:41.101Z,2.67
2017-06-14T15:06:07.137Z,3.10
2017-06-14T15:08:33.321Z,2.90
2017-06-14T15:10:59.461Z,2.70
2017-06-14T15:13:25.582Z,2.50
2017-06-14T15:15:51.625Z,3.27
2017-06-14T15:18:17.669Z,3.07
2017-06-14T15:20:43.709Z,3.13
2017-06-14T15:23:09.943Z,3.53
2017-06-14T15:25:50.985Z,3.70
2017-06-14T15:28:17.106Z,3.13
2017-06-14T15:30:43.274Z,2.97
2017-06-14T15:33:09.319Z,2.90
2017-06-14T15:35:35.409Z,3.30
2017-06-14T15:38:01.478Z,2.90
2017-06-14T15:40:27.647Z,3.00
2017-06-14T15:55:22.931Z,2.97
2017-06-14T15:57:48.970Z,2.90
2017-06-14T16:00:15.006Z,2.87
2017-06-14T16:02:41.801Z,2.90
2017-06-14T16:05:07.829Z,2.60
2017-06-14T16:07:33.882Z,2.87
2017-06-14T16:09:59.926Z,2.70
2017-06-14T16:12:26.742Z,2.93
2017-06-14T16:14:52.782Z,3.53
2017-06-14T16:17:18.823Z,2.60
2017-06-14T16:19:44.989Z,3.00
2017-06-14T16:22:11.027Z,3.20
2017-06-14T16:24:37.109Z,2.70
2017-06-14T16:27:03.185Z,2.57
2017-06-14T16:29:29.240Z,2.80
2017-06-14T16:31:55.294Z,2.70
2017-06-14T16:34:21.350Z,3.03
2017-06-14T16:36:47.407Z,2.73
2017-06-14T16:39:13.537Z,2.43
2017-06-14T16:41:39.857Z,2.67
2017-06-14T16:44:05.902Z,2.33
2017-06-14T16:46:31.954Z,2.60
2017-06-14T16:48:57.987Z,2.60
2017-06-14T16:51:24.060Z,2.90
2017-06-14T16:53:50.097Z,2.30
2017-06-14T16:56:16.126Z,2.97
2017-06-14T16:58:42.157Z,2.70
2017-06-14T17:01:08.218Z,3.23
2017-06-14T17:03:34.356Z,3.10
2017-06-14T17:06:00.400Z,2.33
2017-06-14T17:08:26.445Z,2.73
2017-06-14T17:10:52.498Z,2.50
2017-06-14T17:13:18.537Z,2.60
2017-06-14T17:15:44.590Z,2.83
2017-06-14T17:18:10.673Z,2.43
2017-06-14T17:20:37.464Z,2.20
2017-06-14T17:23:03.546Z,2.90
2017-06-14T17:25:29.818Z,2.80
2017-06-14T17:27:55.862Z,2.30
2017-06-14T17:30:21.929Z,2.67
2017-06-14T17:32:47.980Z,2.90
2017-06-14T17:35:14.022Z,3.63
2017-06-14T17:37:40.106Z,2.90
2017-06-14T17:40:06.170Z,2.83
2017-06-14T17:42:32.298Z,2.70
2017-06-14T17:44:58.345Z,2.93
2017-06-14T17:47:25.393Z,2.57
2017-06-14T17:49:51.449Z,2.80
2017-06-14T17:52:17.488Z,2.90
2017-06-14T17:54:43.540Z,3.07
2017-06-14T17:57:09.574Z,3.10
2017-06-14T17:59:35.621Z,2.80
2017-06-14T18:02:01.661Z,3.00
2017-06-14T18:04:27.697Z,2.60
2017-06-14T18:06:53.726Z,2.97
2017-06-14T18:09:20.549Z,2.53
2017-06-14T18:11:46.597Z,3.00
2017-06-14T18:14:12.625Z,2.70
2017-06-14T18:16:38.661Z,2.43
2017-06-14T18:19:05.438Z,2.87
2017-06-14T18:21:31.478Z,2.67
2017-06-14T18:23:57.521Z,3.03
2017-06-14T18:26:23.549Z,2.90
2017-06-14T18:28:49.717Z,2.40
2017-06-14T18:31:16.616Z,2.50
2017-06-14T18:33:42.702Z,3.23
2017-06-14T18:36:08.912Z,3.40
2017-06-14T18:38:34.954Z,2.90
2017-06-14T18:41:00.987Z,2.70
2017-06-14T18:43:27.030Z,2.23
2017-06-14T18:45:53.070Z,2.47
2017-06-14T18:48:19.114Z,2.92
2017-06-14T18:50:45.158Z,2.93
2017-06-14T18:53:11.341Z,4.50
2017-06-14T18:55:37.371Z,3.13
2017-06-14T18:58:03.418Z,3.40
2017-06-14T19:00:29.453Z,3.10
2017-06-14T19:02:55.498Z,2.80
2017-06-14T19:05:22.288Z,3.40
2017-06-14T19:07:48.322Z,5.50
2017-06-14T19:10:14.374Z,3.43
2017-06-14T19:12:40.422Z,3.50
2017-06-14T19:15:06.790Z,8.13
2017-06-14T19:17:32.833Z,3.30
2017-06-14T19:20:13.842Z,3.50
2017-06-14T19:23:09.854Z,3.50
2017-06-14T19:25:42.062Z,3.83
2017-06-14T19:28:08.109Z,3.57
2017-06-14T19:30:34.170Z,3.25
2017-06-14T19:33:00.225Z,3.73
2017-06-14T19:35:26.406Z,4.07
2017-06-14T19:37:52.442Z,4.27
2017-06-14T19:40:33.465Z,4.10
2017-06-14T19:42:59.526Z,4.25
2017-06-14T19:45:25.577Z,5.00
2017-06-14T19:47:51.629Z,3.45
2017-06-14T19:50:17.695Z,4.10
2017-06-14T19:52:43.905Z,4.40
2017-06-14T19:55:09.962Z,3.93
2017-06-14T19:57:36.004Z,3.60
2017-06-14T20:00:02.070Z,4.10
2017-06-14T20:02:28.141Z,3.85
2017-06-14T20:04:54.193Z,4.30
2017-06-14T20:07:20.238Z,4.97
2017-06-14T20:09:46.294Z,4.00
2017-06-14T20:12:12.358Z,4.37
2017-06-14T20:14:38.482Z,4.93
2017-06-14T20:17:04.522Z,5.43
2017-06-14T20:19:30.554Z,4.63
2017-06-14T20:21:56.628Z,5.80
2017-06-14T20:24:22.982Z,4.72
2017-06-14T20:26:49.029Z,5.70
2017-06-14T20:29:15.079Z,4.90
2017-06-14T20:31:41.130Z,4.80
2017-06-14T20:34:07.170Z,5.65
2017-06-14T20:36:33.254Z,5.05
2017-06-14T20:38:59.309Z,3.87
2017-06-14T20:41:25.357Z,5.03
2017-06-14T20:43:51.403Z,4.70
2017-06-14T20:46:17.509Z,6.22
2017-06-14T20:48:43.557Z,4.70
2017-06-14T20:51:09.630Z,5.18
2017-06-14T20:53:35.680Z,5.50
2017-06-14T20:56:01.735Z,4.72
2017-06-14T20:58:27.792Z,4.37
2017-06-14T21:00:53.861Z,5.25
2017-06-14T21:03:19.914Z,4.60
2017-06-14T21:05:45.985Z,5.30
2017-06-14T21:08:12.050Z,5.18
2017-06-14T21:10:38.099Z,5.78
2017-06-14T21:13:04.141Z,6.10
2017-06-14T21:15:30.182Z,5.53
2017-06-14T21:17:56.225Z,6.65
2017-06-14T21:20:37.217Z,6.00
2017-06-14T21:23:03.263Z,6.20
2017-06-14T21:25:29.305Z,5.75
2017-06-14T21:27:55.391Z,6.40
2017-06-14T21:30:21.448Z,6.97
2017-06-14T21:32:47.481Z,6.85
2017-06-14T21:35:13.522Z,6.95
2017-06-14T21:37:39.571Z,7.05
2017-06-14T21:40:06.359Z,8.75
2017-06-14T21:42:32.409Z,7.87
2017-06-14T21:44:58.446Z,7.93
2017-06-14T21:47:24.497Z,8.18
2017-06-14T21:49:50.566Z,6.65
2017-06-14T21:52:16.813Z,8.05
2017-06-14T21:54:42.845Z,7.80
2017-06-14T21:57:08.922Z,7.97
2017-06-14T21:59:34.971Z,6.80
2017-06-14T22:02:01.033Z,7.45
2017-06-14T22:04:27.106Z,7.62
2017-06-14T22:06:53.165Z,7.40
2017-06-14T22:09:19.215Z,7.30
2017-06-14T22:11:45.274Z,7.43
2017-06-14T22:14:11.609Z,7.68
2017-06-14T22:16:37.666Z,7.03
2017-06-14T22:19:03.717Z,6.70
2017-06-14T22:21:29.775Z,6.05
2017-06-14T22:23:55.824Z,6.57
2017-06-14T22:26:21.878Z,6.55
2017-06-14T22:28:47.921Z,7.15
2017-06-14T22:31:13.962Z,6.18
2017-06-14T22:33:40.001Z,6.85
2017-06-14T22:36:06.154Z,6.90
2017-06-14T22:38:32.204Z,7.28
2017-06-14T22:40:58.245Z,6.45
2017-06-14T22:43:24.297Z,7.10
2017-06-14T22:45:50.369Z,6.87
2017-06-14T22:48:16.412Z,6.97
2017-06-14T22:50:42.454Z,7.50
2017-06-14T22:53:08.486Z,7.55
2017-06-14T22:55:34.520Z,7.80
2017-06-14T22:58:01.613Z,7.07
2017-06-14T23:00:27.662Z,7.12
2017-06-14T23:02:53.710Z,7.43
2017-06-14T23:05:19.754Z,7.47
2017-06-14T23:07:45.789Z,8.05
2017-06-14T23:10:12.565Z,7.10
2017-06-14T23:12:38.605Z,7.93
2017-06-14T23:15:04.638Z,7.37
2017-06-14T23:17:30.676Z,7.37
2017-06-14T23:19:57.495Z,7.75
2017-06-14T23:22:23.549Z,8.35
2017-06-14T23:24:49.610Z,8.63
2017-06-14T23:27:15.641Z,7.03
2017-06-14T23:29:41.706Z,7.07
2017-06-14T23:32:07.742Z,8.00
2017-06-14T23:34:33.789Z,8.48
2017-06-14T23:36:59.829Z,6.72
2017-06-14T23:39:25.866Z,7.12
2017-06-14T23:41:52.951Z,7.10
2017-06-14T23:44:18.990Z,7.00
2017-06-14T23:46:45.022Z,7.20
2017-06-14T23:49:11.058Z,7.55
2017-06-14T23:51:37.102Z,6.80
2017-06-14T23:54:03.146Z,7.70
2017-06-14T23:56:29.189Z,7.10
2017-06-14T23:59:10.214Z,8.60
